Time;durP1;ratioP1;P1;durP2;ratioP2;P2;SDS_P1;SDS_P2;PMS_P1;PMS_P2;Temp;Humidity;BMP_temperature;BMP_pressure;BME280_temperature;BME280_humidity;BME280_pressure;Samples;Min_cycle;Max_cycle;Signal;HPM_P1;HPM_P2
2021/10/25 00:00:15;;;;;;;6.60;4.30;;;;;;;2.61;62.80;101072.39;116642;1200;22296;-68
2021/10/25 00:02:43;;;;;;;7.70;5.20;;;;;;;2.55;62.83;101079.66;116613;1201;138346;-68
2021/10/25 00:05:11;;;;;;;8.00;5.40;;;;;;;2.50;63.20;101079.85;116652;1201;22364;-68
2021/10/25 00:07:39;;;;;;;9.30;5.10;;;;;;;2.45;63.23;101083.05;116541;1200;138776;-68
2021/10/25 00:10:09;;;;;;;8.00;4.80;;;;;;;2.40;63.55;101083.83;116704;1201;22313;-68
2021/10/25 00:12:52;;;;;;;10.10;6.00;;;;;;;2.36;63.69;101081.19;116521;1199;137892;-67
2021/10/25 00:15:40;;;;;;;9.00;5.30;;;;;;;2.34;63.73;101083.40;116656;1200;22162;-67
2021/10/25 00:18:08;;;;;;;8.30;5.60;;;;;;;2.34;63.82;101084.67;116713;1201;22145;-68
2021/10/25 00:20:36;;;;;;;6.40;4.60;;;;;;;2.34;63.97;101080.52;116542;1201;138489;-68
2021/10/25 00:23:05;;;;;;;8.60;4.50;;;;;;;2.35;64.02;101084.01;116722;1201;22237;-68
2021/10/25 00:25:34;;;;;;;8.30;5.00;;;;;;;2.34;64.17;101084.64;116548;1201;137867;-68
2021/10/25 00:28:02;;;;;;;7.70;4.60;;;;;;;2.32;64.30;101082.35;116712;1199;23125;-68
2021/10/25 00:30:32;;;;;;;8.40;4.70;;;;;;;2.31;64.26;101079.35;116706;1201;23121;-68
2021/10/25 00:33:00;;;;;;;10.20;6.20;;;;;;;2.31;64.18;101079.60;116563;1200;137762;-68
2021/10/25 00:35:29;;;;;;;9.90;5.80;;;;;;;2.29;64.22;101077.20;116674;1200;22377;-68
2021/10/25 00:37:57;;;;;;;10.60;6.40;;;;;;;2.26;64.35;101077.89;116531;1201;137803;-69
2021/10/25 00:40:25;;;;;;;9.50;6.40;;;;;;;2.23;64.56;101082.05;116684;1200;22344;-68
2021/10/25 00:42:53;;;;;;;12.40;7.90;;;;;;;2.21;64.65;101081.27;116620;1201;138190;-68
2021/10/25 00:45:21;;;;;;;12.00;7.80;;;;;;;2.18;64.63;101082.09;116631;1200;24630;-68
2021/10/25 00:47:50;;;;;;;14.80;8.10;;;;;;;2.17;64.80;101084.91;116678;1200;22399;-68
2021/10/25 00:50:17;;;;;;;14.80;8.40;;;;;;;2.18;64.77;101085.02;116570;1201;138078;-68
2021/10/25 00:52:45;;;;;;;12.40;7.30;;;;;;;2.18;64.78;101079.95;116635;1201;22127;-68
2021/10/25 00:55:13;;;;;;;12.70;7.50;;;;;;;2.16;64.83;101078.77;116604;1201;138312;-68
2021/10/25 00:57:42;;;;;;;9.40;7.00;;;;;;;2.14;64.78;101077.71;116653;1187;22340;-68
2021/10/25 01:00:11;;;;;;;11.10;7.50;;;;;;;2.11;64.86;101078.03;116640;1200;22317;-68
2021/10/25 01:02:39;;;;;;;15.10;7.80;;;;;;;2.09;65.02;101080.74;116540;1200;138227;-68
2021/10/25 01:05:09;;;;;;;18.60;9.70;;;;;;;2.08;65.06;101085.00;116718;1200;22313;-67
2021/10/25 01:07:38;;;;;;;38.70;16.80;;;;;;;2.06;65.05;101086.21;116578;1186;138546;-67
2021/10/25 01:10:18;;;;;;;36.50;14.60;;;;;;;2.04;65.13;101092.69;116631;1201;22272;-68
2021/10/25 01:12:48;;;;;;;41.70;16.90;;;;;;;2.02;65.21;101090.84;116519;1201;137976;-67
2021/10/25 01:15:17;;;;;;;39.70;16.40;;;;;;;2.00;65.37;101091.42;116496;1201;22205;-67
2021/10/25 01:17:57;;;;;;;37.60;15.70;;;;;;;1.98;65.42;101096.64;116615;1201;22329;-67
2021/10/25 01:20:26;;;;;;;31.20;13.60;;;;;;;1.96;65.65;101092.75;116536;1200;139079;-67
2021/10/25 01:22:55;;;;;;;33.70;13.20;;;;;;;1.93;65.53;101096.12;116633;1201;22312;-67
2021/10/25 01:25:24;;;;;;;31.40;13.50;;;;;;;1.87;65.64;101100.30;116500;1201;138025;-67
2021/10/25 01:27:54;;;;;;;21.40;11.20;;;;;;;1.82;65.80;101101.91;116679;1200;22318;-67
2021/10/25 01:30:22;;;;;;;17.80;9.00;;;;;;;1.74;65.90;101100.02;116613;1200;22330;-67
2021/10/25 01:32:50;;;;;;;21.10;10.20;;;;;;;1.70;66.05;101108.02;116473;1187;138779;-67
2021/10/25 01:35:19;;;;;;;22.10;8.70;;;;;;;1.60;66.10;101104.60;116649;1200;22172;-68
2021/10/25 01:37:46;;;;;;;20.80;8.90;;;;;;;1.55;66.12;101113.61;116502;1200;138037;-68
2021/10/25 01:40:15;;;;;;;18.60;9.30;;;;;;;1.47;66.25;101119.13;116652;1200;22242;-68
2021/10/25 01:42:43;;;;;;;20.40;8.60;;;;;;;1.35;66.32;101125.52;116536;1200;139333;-68
2021/10/25 01:45:11;;;;;;;14.30;7.10;;;;;;;1.27;66.52;101125.67;116673;1200;22305;-68
2021/10/25 01:47:39;;;;;;;13.60;7.70;;;;;;;1.20;66.94;101126.87;116624;1200;22324;-68
2021/10/25 01:50:08;;;;;;;14.20;7.00;;;;;;;1.11;67.09;101127.96;116404;1201;138781;-68
2021/10/25 01:52:37;;;;;;;17.60;8.00;;;;;;;1.09;67.22;101137.57;116695;1200;23865;-68
2021/10/25 01:55:06;;;;;;;15.00;7.60;;;;;;;1.03;67.20;101134.54;116480;1200;138999;-68
2021/10/25 01:57:34;;;;;;;12.10;7.30;;;;;;;0.97;67.27;101145.00;116298;1200;22290;-68
2021/10/25 02:00:05;;;;;;;18.10;9.00;;;;;;;0.90;67.57;101143.02;116681;1200;22353;-68
2021/10/25 02:02:42;;;;;;;16.80;8.00;;;;;;;0.85;67.82;101139.27;116574;1197;137977;-69
2021/10/25 02:05:27;;;;;;;18.90;9.60;;;;;;;0.84;68.04;101146.17;116538;1201;22133;-69
2021/10/25 02:07:56;;;;;;;20.20;10.50;;;;;;;0.81;67.94;101143.43;116531;1200;138115;-69
2021/10/25 02:10:25;;;;;;;15.10;8.10;;;;;;;0.80;68.10;101149.15;116686;1200;22346;-68
2021/10/25 02:12:53;;;;;;;14.70;7.20;;;;;;;0.76;68.00;101150.98;116492;1200;138230;-67
2021/10/25 02:15:21;;;;;;;13.10;7.60;;;;;;;0.71;68.08;101153.97;116648;1200;22253;-68
2021/10/25 02:17:49;;;;;;;14.10;7.20;;;;;;;0.66;67.95;101156.08;116636;1200;23323;-68
2021/10/25 02:20:17;;;;;;;19.60;9.40;;;;;;;0.61;68.33;101151.69;115346;1200;138112;-67
2021/10/25 02:22:46;;;;;;;14.10;7.30;;;;;;;0.60;68.70;101151.68;116553;1200;22335;-68
2021/10/25 02:25:14;;;;;;;13.00;7.00;;;;;;;0.57;68.90;101151.02;116485;1200;139049;-67
2021/10/25 02:27:42;;;;;;;17.90;8.10;;;;;;;0.58;69.06;101152.37;116701;1201;22341;-68
2021/10/25 02:30:11;;;;;;;14.30;7.00;;;;;;;0.57;69.08;101151.95;116557;1201;22914;-68
2021/10/25 02:32:40;;;;;;;12.80;7.60;;;;;;;0.56;68.98;101154.27;116516;1200;137668;-68
2021/10/25 02:35:08;;;;;;;17.80;7.60;;;;;;;0.54;69.18;101159.81;116652;1200;22352;-67
2021/10/25 02:37:42;;;;;;;14.20;7.30;;;;;;;0.53;69.54;101161.86;116500;1200;138072;-67
2021/10/25 02:40:11;;;;;;;14.70;7.00;;;;;;;0.51;69.16;101164.20;116699;1200;22397;-68
2021/10/25 02:42:39;;;;;;;16.50;8.00;;;;;;;0.48;69.16;101166.23;116564;1199;138778;-63
2021/10/25 02:45:08;;;;;;;16.40;8.00;;;;;;;0.45;69.17;101170.64;116564;1196;22917;-67
2021/10/25 02:47:37;;;;;;;16.40;8.30;;;;;;;0.41;69.10;101174.85;116597;1197;23895;-67
2021/10/25 02:50:08;;;;;;;16.90;7.80;;;;;;;0.37;69.32;101174.19;116521;1201;138881;-67
2021/10/25 02:52:36;;;;;;;15.50;7.90;;;;;;;0.32;69.42;101178.36;116623;1200;23125;-67
2021/10/25 02:55:04;;;;;;;16.30;7.60;;;;;;;0.27;69.34;101180.82;116531;1200;138587;-67
2021/10/25 02:57:35;;;;;;;21.70;8.70;;;;;;;0.24;69.55;101182.94;116666;1199;22342;-67
2021/10/25 03:00:05;;;;;;;22.20;9.20;;;;;;;0.20;69.43;101187.95;116656;1200;22221;-67
2021/10/25 03:02:34;;;;;;;16.10;8.20;;;;;;;0.17;69.82;101192.02;116442;1200;137739;-68
2021/10/25 03:05:04;;;;;;;16.30;8.10;;;;;;;0.15;69.80;101194.42;116625;1200;22291;-68
2021/10/25 03:07:34;;;;;;;17.10;8.20;;;;;;;0.12;69.79;101192.52;116536;1200;138382;-67
2021/10/25 03:10:03;;;;;;;16.30;8.30;;;;;;;0.09;69.73;101194.98;116695;1200;22964;-67
2021/10/25 03:12:33;;;;;;;14.70;8.00;;;;;;;0.08;69.95;101192.36;116710;1201;23085;-67
2021/10/25 03:15:04;;;;;;;15.60;8.70;;;;;;;0.09;70.28;101192.51;116480;1199;137760;-67
2021/10/25 03:17:33;;;;;;;15.10;7.70;;;;;;;0.09;70.38;101187.14;116687;1200;22468;-68
2021/10/25 03:20:13;;;;;;;13.10;6.90;;;;;;;0.07;70.14;101190.51;116558;1200;137761;-68
2021/10/25 03:22:44;;;;;;;11.20;6.70;;;;;;;0.05;70.12;101189.13;116629;1201;22332;-68
2021/10/25 03:25:16;;;;;;;20.70;10.30;;;;;;;0.02;70.14;101190.33;116495;1200;139752;-68
2021/10/25 03:27:44;;;;;;;15.40;8.10;;;;;;;-0.02;70.12;101189.46;116657;1201;22348;-68
2021/10/25 03:30:12;;;;;;;15.80;7.20;;;;;;;-0.05;70.48;101194.38;116605;1200;22364;-68
2021/10/25 03:32:43;;;;;;;15.60;7.90;;;;;;;-0.08;70.58;101194.67;116611;1200;137899;-68
2021/10/25 03:35:30;;;;;;;12.70;7.10;;;;;;;-0.12;70.40;101195.38;116670;1200;22143;-68
2021/10/25 03:37:58;;;;;;;17.10;8.50;;;;;;;-0.16;70.53;101198.83;116555;1200;139025;-68
2021/10/25 03:40:30;;;;;;;18.00;8.60;;;;;;;-0.21;70.59;101195.74;116629;1201;22294;-68
2021/10/25 03:42:59;;;;;;;19.50;9.20;;;;;;;-0.22;70.42;101200.52;116501;1201;138404;-68
2021/10/25 03:45:41;;;;;;;20.90;9.20;;;;;;;-0.26;70.41;101198.01;116609;1201;24420;-68
2021/10/25 03:50:38;;;;;;;21.10;8.40;;;;;;;-0.31;70.55;101195.15;116464;1200;138311;-68
2021/10/25 03:53:34;;;;;;;;;;;;;;;-0.32;70.50;101200.82;116653;1200;23230;-68
2021/10/25 03:59:07;;;;;;;18.20;8.70;;;;;;;-0.40;70.99;101203.62;116658;1199;22859;-67
2021/10/25 04:02:00;;;;;;;16.20;7.80;;;;;;;-0.42;70.85;101205.81;116544;1200;138957;-67
2021/10/25 04:30:06;;;;;;;29.40;11.80;;;;;;;-0.61;71.07;101225.33;116014;1205;22345;-69
2021/10/25 04:32:35;;;;;;;37.00;12.20;;;;;;;-0.64;71.04;101223.13;115903;1204;138569;-69
2021/10/25 04:35:05;;;;;;;27.90;12.00;;;;;;;-0.67;71.02;101227.10;116003;1190;22449;-69
2021/10/25 04:37:51;;;;;;;31.10;13.70;;;;;;;-0.72;70.86;101219.13;115957;1204;139101;-69
2021/10/25 04:40:22;;;;;;;27.30;12.00;;;;;;;-0.73;70.86;101223.40;116027;1205;23149;-69
2021/10/25 04:42:50;;;;;;;37.80;14.60;;;;;;;-0.78;70.93;101219.22;116240;1201;22211;-68
2021/10/25 04:45:19;;;;;;;29.60;13.30;;;;;;;-0.80;70.79;101219.61;116452;1201;139553;-68
2021/10/25 04:47:52;;;;;;;35.80;13.80;;;;;;;-0.82;71.13;101221.95;116384;1202;22180;-68
2021/10/25 04:50:41;;;;;;;35.60;14.20;;;;;;;-0.86;70.87;101225.10;116303;1202;138075;-69
2021/10/25 04:53:18;;;;;;;26.30;13.30;;;;;;;-0.88;70.90;101233.94;116412;1202;22168;-67
2021/10/25 04:55:46;;;;;;;30.50;12.50;;;;;;;-0.90;71.44;101230.33;116225;1202;138801;-67
2021/10/25 04:58:14;;;;;;;30.50;15.30;;;;;;;-0.89;71.18;101240.92;116352;1203;23096;-68
2021/10/25 05:00:44;;;;;;;30.00;14.10;;;;;;;-0.88;71.47;101247.85;116369;1202;22197;-69
2021/10/25 05:03:13;;;;;;;39.40;18.40;;;;;;;-0.88;71.72;101250.83;116248;1202;138245;-69
2021/10/25 05:05:44;;;;;;;40.80;18.40;;;;;;;-0.84;72.00;101254.92;116657;1198;22789;-68
2021/10/25 05:08:13;;;;;;;50.90;21.60;;;;;;;-0.81;71.80;101256.19;116762;1198;138235;-68
2021/10/25 05:10:41;;;;;;;44.00;22.00;;;;;;;-0.77;71.88;101258.70;116568;1200;22440;-68
2021/10/25 05:13:09;;;;;;;46.40;21.90;;;;;;;-0.74;72.20;101259.86;116495;1201;140055;-67
2021/10/25 05:15:38;;;;;;;49.30;21.30;;;;;;;-0.70;71.93;101265.42;116568;1186;22318;-67
2021/10/25 05:18:10;;;;;;;48.80;22.10;;;;;;;-0.66;72.13;101268.63;116570;1199;22266;-67
2021/10/25 05:20:38;;;;;;;49.40;21.10;;;;;;;-0.61;72.42;101271.40;116430;1201;138880;-68
2021/10/25 05:23:08;;;;;;;49.00;20.90;;;;;;;-0.58;72.42;101277.14;116531;1201;22323;-68
2021/10/25 05:25:36;;;;;;;49.90;22.90;;;;;;;-0.54;72.51;101279.91;116426;1200;138361;-68
2021/10/25 05:28:05;;;;;;;52.90;20.30;;;;;;;-0.48;72.68;101278.29;116494;1201;24330;-68
2021/10/25 05:30:33;;;;;;;43.30;21.00;;;;;;;-0.41;72.95;101279.95;116669;1201;23435;-67
2021/10/25 05:33:02;;;;;;;45.80;18.20;;;;;;;-0.31;73.24;101278.02;116384;1201;138406;-67
2021/10/25 05:35:31;;;;;;;44.20;16.50;;;;;;;-0.21;73.12;101279.85;116526;1201;22781;-67
2021/10/25 05:37:59;;;;;;;40.30;15.00;;;;;;;-0.11;73.34;101278.38;116323;1201;138402;-68
2021/10/25 05:40:27;;;;;;;40.70;14.90;;;;;;;-0.00;73.18;101285.36;114106;1201;24264;-66
2021/10/25 05:42:58;;;;;;;33.00;14.70;;;;;;;0.12;72.89;101286.30;112502;1198;22440;-65
2021/10/25 05:45:27;;;;;;;30.00;15.70;;;;;;;0.26;73.08;101286.92;116888;1197;139116;-66
2021/10/25 05:47:55;;;;;;;35.60;18.10;;;;;;;0.39;73.00;101293.52;116874;1198;23386;-67
2021/10/25 05:50:24;;;;;;;44.30;16.80;;;;;;;0.51;72.58;101295.55;116597;1199;138256;-67
2021/10/25 05:52:52;;;;;;;43.40;19.40;;;;;;;0.63;72.65;101302.08;116873;1198;22386;-67
2021/10/25 05:55:23;;;;;;;41.40;20.30;;;;;;;0.75;72.21;101297.55;116803;1198;139231;-66
2021/10/25 05:57:52;;;;;;;49.70;23.00;;;;;;;0.84;72.03;101300.23;116797;1198;22315;-66
2021/10/25 06:00:25;;;;;;;50.80;23.10;;;;;;;0.95;72.06;101302.87;116905;1198;22146;-66
2021/10/25 06:02:55;;;;;;;65.70;26.30;;;;;;;1.05;71.68;101308.07;116672;1199;138812;-66
2021/10/25 06:05:26;;;;;;;50.10;22.60;;;;;;;1.15;71.55;101311.79;116937;1198;22343;-66
2021/10/25 06:07:55;;;;;;;67.40;27.70;;;;;;;1.24;71.22;101317.79;116557;1198;139136;-66
2021/10/25 06:10:27;;;;;;;54.30;24.00;;;;;;;1.34;71.04;101314.48;116916;1198;22387;-66
2021/10/25 06:13:05;;;;;;;54.40;25.90;;;;;;;1.45;70.99;101318.80;116954;1198;137209;-62
2021/10/25 06:16:05;;;;;;;41.70;20.50;;;;;;;1.53;70.61;101317.54;117004;1198;22292;-66
2021/10/25 06:18:33;;;;;;;46.50;17.50;;;;;;;1.63;70.61;101322.79;116991;1198;22242;-65
2021/10/25 06:21:02;;;;;;;37.30;16.40;;;;;;;1.71;70.44;101321.08;116767;1198;138371;-66
2021/10/25 06:23:30;;;;;;;34.20;17.00;;;;;;;1.78;70.33;101322.23;116903;1198;22294;-66
2021/10/25 06:25:58;;;;;;;63.40;23.10;;;;;;;1.85;69.88;101327.36;116735;1198;137782;-66
2021/10/25 06:28:27;;;;;;;34.30;15.30;;;;;;;1.92;69.88;101328.81;116890;1198;22241;-66
2021/10/25 06:31:03;;;;;;;45.00;16.00;;;;;;;1.98;69.75;101330.00;116921;1199;22243;-66
2021/10/25 06:34:08;;;;;;;46.90;14.80;;;;;;;2.05;69.62;101327.75;116764;1198;23103;-66
2021/10/25 06:36:55;;;;;;;35.90;15.60;;;;;;;2.11;69.36;101327.64;117001;1198;23400;-66
2021/10/25 06:39:40;;;;;;;46.50;16.30;;;;;;;2.17;69.10;101326.71;116200;1199;140043;-65
2021/10/25 06:42:08;;;;;;;36.60;14.50;;;;;;;2.23;68.92;101330.24;112509;1199;23791;-66
2021/10/25 06:45:01;;;;;;;37.00;15.00;;;;;;;2.29;68.92;101328.70;112499;1198;138527;-68
2021/10/25 06:47:35;;;;;;;43.80;18.50;;;;;;;2.38;68.76;101334.02;112605;1198;25143;-68
2021/10/25 06:50:06;;;;;;;51.70;21.20;;;;;;;2.43;68.22;101336.89;116847;1198;139760;-67
2021/10/25 06:52:47;;;;;;;44.90;17.40;;;;;;;2.45;68.23;101340.83;116763;1199;22241;-66
2021/10/25 06:55:15;;;;;;;42.20;17.30;;;;;;;2.53;68.27;101342.00;116922;1198;22361;-66
2021/10/25 06:57:48;;;;;;;35.10;17.70;;;;;;;2.60;67.99;101343.04;116710;1192;138152;-66
2021/10/25 07:00:16;;;;;;;39.20;17.60;;;;;;;2.67;67.76;101344.41;117049;1198;22440;-66
2021/10/25 07:02:44;;;;;;;44.60;19.60;;;;;;;2.75;67.75;101340.44;116878;1198;137690;-66
2021/10/25 07:05:15;;;;;;;44.60;19.30;;;;;;;2.85;67.62;101346.77;116866;1198;22824;-66
2021/10/25 07:07:45;;;;;;;38.40;19.20;;;;;;;2.93;67.18;101344.15;116807;1199;138413;-66
2021/10/25 07:10:13;;;;;;;38.00;19.20;;;;;;;2.97;66.91;101337.73;116870;1198;22334;-66
2021/10/25 07:12:46;;;;;;;40.50;21.00;;;;;;;3.01;66.66;101340.02;116783;1198;22238;-66
2021/10/25 07:15:15;;;;;;;41.60;20.10;;;;;;;3.04;66.55;101337.52;116680;1200;137149;-66
2021/10/25 08:08:39;;;;;;;16.90;7.60;;;;;;;4.59;59.40;101333.17;116794;1198;138601;-67
2021/10/25 08:11:09;;;;;;;13.30;7.00;;;;;;;4.70;58.81;101339.89;116871;1199;22306;-68
2021/10/25 08:13:48;;;;;;;11.40;5.40;;;;;;;4.77;58.39;101335.80;116885;1199;22957;-67
2021/10/25 08:21:19;;;;;;;9.30;5.90;;;;;;;4.89;57.89;101331.03;116804;1199;137651;-67
2021/10/25 08:23:49;;;;;;;8.30;4.80;;;;;;;4.94;57.78;101329.70;116945;1199;22226;-67
2021/10/25 08:26:45;;;;;;;9.50;4.10;;;;;;;5.00;56.72;101330.83;116873;1198;137125;-67
2021/10/25 08:29:16;;;;;;;12.80;5.40;;;;;;;5.09;56.72;101331.14;116837;1198;23029;-67
2021/10/25 08:31:49;;;;;;;12.00;5.90;;;;;;;5.16;56.37;101332.92;117038;1198;22471;-67
2021/10/25 08:40:00;;;;;;;8.50;4.70;;;;;;;5.20;55.65;101323.71;116760;1199;138305;-67
2021/10/25 08:43:38;;;;;;;10.20;4.30;;;;;;;5.24;55.61;101327.66;110843;1204;544854;-69
2021/10/25 08:46:09;;;;;;;9.80;4.60;;;;;;;5.23;54.32;101325.40;116065;1204;136737;-67
2021/10/25 08:48:42;;;;;;;9.10;4.30;;;;;;;5.21;54.17;101323.95;116171;1204;22158;-67
2021/10/25 08:51:11;;;;;;;6.80;3.50;;;;;;;5.19;54.68;101317.09;116102;1204;137056;-67
2021/10/25 08:53:40;;;;;;;9.20;3.50;;;;;;;5.20;54.61;101313.67;116120;1204;22336;-67
2021/10/25 08:56:08;;;;;;;8.30;3.70;;;;;;;5.25;54.70;101311.98;116104;1204;136463;-66
2021/10/25 08:58:50;;;;;;;10.00;4.30;;;;;;;5.31;54.30;101313.81;116178;1204;22710;-67
2021/10/25 09:01:26;;;;;;;5.20;3.20;;;;;;;5.37;54.25;101318.17;116189;1204;22363;-67
2021/10/25 09:04:11;;;;;;;5.70;3.90;;;;;;;5.41;53.97;101319.10;116169;1204;136648;-67
2021/10/25 09:06:54;;;;;;;4.90;3.40;;;;;;;5.45;53.76;101320.17;116168;1204;22400;-67
2021/10/25 09:09:26;;;;;;;6.10;4.10;;;;;;;5.50;53.87;101322.03;116091;1204;137054;-66
2021/10/25 09:12:04;;;;;;;11.70;4.60;;;;;;;5.55;53.11;101315.68;116123;1204;22390;-66
2021/10/25 09:14:42;;;;;;;8.30;4.00;;;;;;;5.58;52.89;101307.95;116023;1203;137892;-66
2021/10/25 09:17:10;;;;;;;8.50;4.00;;;;;;;5.60;52.94;101306.02;116230;1204;23148;-67
2021/10/25 09:19:48;;;;;;;6.10;3.70;;;;;;;5.64;52.59;101301.98;116210;1203;22306;-67
2021/10/25 09:22:20;;;;;;;7.00;3.90;;;;;;;5.65;52.82;101298.55;116082;1204;136679;-68
2021/10/25 09:24:57;;;;;;;13.40;4.80;;;;;;;5.70;53.27;101297.60;116269;1204;22391;-68
2021/10/25 09:27:41;;;;;;;7.30;4.40;;;;;;;5.76;53.35;101299.57;116126;1204;137473;-68
2021/10/25 09:30:16;;;;;;;10.00;4.70;;;;;;;5.83;52.86;101296.27;116194;1204;22413;-68
2021/10/25 09:32:45;;;;;;;9.50;4.40;;;;;;;5.89;52.39;101298.81;116934;1199;137154;-67
2021/10/25 09:35:44;;;;;;;6.80;4.40;;;;;;;5.92;52.26;101300.80;116944;1199;22299;-67
2021/10/25 09:49:15;;;;;;;16.70;8.60;;;;;;;6.05;50.85;101291.02;116987;1183;23097;-68
2021/10/25 09:51:56;;;;;;;21.90;12.90;;;;;;;6.06;50.70;101286.33;116814;1199;136630;-68
2021/10/25 09:54:25;;;;;;;62.80;33.30;;;;;;;6.07;50.65;101287.42;116819;1198;23855;-68
2021/10/25 09:59:55;;;;;;;10.30;5.60;;;;;;;6.12;51.01;101284.09;117052;1197;24144;-68
2021/10/25 10:02:49;;;;;;;10.80;4.40;;;;;;;6.16;51.00;101281.66;116910;1198;138131;-67
2021/10/25 10:05:35;;;;;;;7.40;3.70;;;;;;;6.20;49.93;101278.68;116791;1199;22367;-67
2021/10/25 10:08:05;;;;;;;8.80;4.40;;;;;;;6.24;49.52;101279.60;116770;1199;23017;-67
2021/10/25 10:10:36;;;;;;;8.40;4.40;;;;;;;6.28;49.17;101274.63;116635;1199;136781;-67
2021/10/25 10:13:12;;;;;;;5.90;4.20;;;;;;;6.30;49.08;101268.91;116806;1199;22380;-67
2021/10/25 10:15:50;;;;;;;9.70;4.70;;;;;;;6.33;49.27;101267.04;116560;1200;136773;-67
2021/10/25 10:18:20;;;;;;;7.50;4.70;;;;;;;6.38;49.53;101265.80;116977;1199;23666;-68
2021/10/25 10:21:07;;;;;;;6.70;3.70;;;;;;;6.43;49.08;101266.04;116907;1199;136820;-67
2021/10/25 10:23:36;;;;;;;14.10;8.40;;;;;;;6.45;48.79;101265.98;116968;1199;22261;-67
2021/10/25 10:26:11;;;;;;;46.90;26.40;;;;;;;6.46;48.48;101259.79;116657;1199;22327;-66
2021/10/25 10:28:44;;;;;;;21.90;13.30;;;;;;;6.45;48.89;101257.49;116556;1199;137333;-67
2021/10/25 10:31:21;;;;;;;28.00;15.70;;;;;;;6.48;48.44;101256.81;116683;1199;23291;-66
2021/10/25 10:34:00;;;;;;;24.30;12.80;;;;;;;6.50;48.84;101252.20;116568;1199;136807;-67
2021/10/25 10:36:34;;;;;;;16.70;8.30;;;;;;;6.52;49.09;101251.52;116685;1198;22199;-67
2021/10/25 10:39:12;;;;;;;10.40;5.80;;;;;;;6.58;49.16;101249.03;116565;1199;137650;-66
2021/10/25 10:42:12;;;;;;;10.10;5.60;;;;;;;6.65;48.90;101246.67;116631;1198;22409;-67
2021/10/25 10:44:53;;;;;;;11.10;5.10;;;;;;;6.68;48.73;101247.60;116821;1197;137558;-67
2021/10/25 10:47:21;;;;;;;17.60;4.40;;;;;;;6.72;48.83;101250.82;116685;1198;22164;-67
2021/10/25 10:49:51;;;;;;;8.10;4.80;;;;;;;6.75;48.88;101251.11;116944;1198;22468;-68
2021/10/25 10:55:09;;;;;;;8.80;5.20;;;;;;;6.80;48.76;101241.73;116896;1198;22324;-67
2021/10/25 11:00:34;;;;;;;11.60;5.00;;;;;;;6.85;48.63;101240.45;116938;1198;22466;-67
2021/10/25 11:03:22;;;;;;;7.10;4.50;;;;;;;6.87;48.71;101241.40;116793;1199;137390;-67
2021/10/25 11:05:52;;;;;;;;;;;;;;;6.90;48.39;101239.73;116942;1199;23082;-67
2021/10/25 11:08:24;;;;;;;7.80;4.30;;;;;;;6.95;48.16;101244.70;116620;1199;123197;-66
2021/10/25 11:11:09;;;;;;;8.60;4.70;;;;;;;6.98;47.89;101240.10;116897;1198;22314;-67
2021/10/25 11:13:46;;;;;;;7.50;5.00;;;;;;;7.03;47.55;101239.54;116678;1199;22308;-67
2021/10/25 11:18:53;;;;;;;13.90;4.60;;;;;;;7.07;46.55;101233.85;116862;1199;22203;-67
2021/10/25 11:21:28;;;;;;;19.10;5.80;;;;;;;7.07;46.02;101237.44;116870;1199;137613;-66
2021/10/25 11:24:02;;;;;;;9.90;5.00;;;;;;;7.07;46.31;101233.94;116891;1199;22566;-66
2021/10/25 11:26:35;;;;;;;11.30;6.40;;;;;;;7.10;46.00;101236.51;116574;1199;137051;-68
2021/10/25 11:29:11;;;;;;;43.90;23.20;;;;;;;7.13;45.86;101232.03;116917;1195;22269;-68
2021/10/25 11:31:42;;;;;;;18.50;9.70;;;;;;;7.16;46.17;101229.11;116938;1198;22316;-68
2021/10/25 11:34:24;;;;;;;18.60;9.50;;;;;;;7.19;46.03;101224.05;116653;1200;137479;-68
2021/10/25 11:37:03;;;;;;;22.90;13.90;;;;;;;7.22;46.00;101220.49;116858;1199;22246;-68
2021/10/25 11:39:40;;;;;;;12.40;6.70;;;;;;;7.26;45.87;101214.59;116696;1199;137463;-60
2021/10/25 11:42:10;;;;;;;12.00;6.60;;;;;;;7.30;45.53;101215.05;116915;1197;22376;-59
2021/10/25 11:44:39;;;;;;;22.60;9.80;;;;;;;7.32;45.54;101213.33;116878;1199;137012;-60
2021/10/25 11:47:20;;;;;;;25.80;13.60;;;;;;;7.33;45.91;101213.92;116872;1199;23081;-60
2021/10/25 11:49:49;;;;;;;11.90;7.70;;;;;;;7.34;46.56;101209.05;116925;1199;23077;-60
2021/10/25 11:52:17;;;;;;;13.60;7.00;;;;;;;7.37;46.07;101210.52;116798;1199;138127;-60
2021/10/25 11:54:46;;;;;;;8.90;5.70;;;;;;;7.40;46.03;101209.33;116861;1199;22279;-60
2021/10/25 11:57:16;;;;;;;9.00;4.70;;;;;;;7.43;45.33;101203.56;116817;1199;137100;-60
2021/10/25 12:00:04;;;;;;;8.90;6.00;;;;;;;7.45;45.38;101196.63;116905;1199;22481;-60
2021/10/25 12:02:41;;;;;;;11.60;6.20;;;;;;;7.47;45.09;101193.64;116808;1199;136818;-60
2021/10/25 12:05:10;;;;;;;10.20;5.90;;;;;;;7.49;44.98;101192.23;116792;1200;22300;-60
2021/10/25 12:07:48;;;;;;;11.80;6.20;;;;;;;7.49;44.84;101184.77;116839;1199;22359;-60
2021/10/25 12:10:17;;;;;;;13.30;6.40;;;;;;;7.49;45.05;101179.89;116798;1199;137185;-60
2021/10/25 12:12:45;;;;;;;9.10;6.00;;;;;;;7.50;45.08;101181.02;116860;1199;22254;-59
2021/10/25 12:15:15;;;;;;;22.30;14.00;;;;;;;7.50;44.70;101178.42;116805;1198;136652;-59
2021/10/25 12:17:43;;;;;;;11.50;6.70;;;;;;;7.51;44.69;101176.02;116937;1198;22421;-60
2021/10/25 12:20:11;;;;;;;30.90;17.00;;;;;;;7.52;44.65;101178.72;116829;1193;22313;-59
2021/10/25 12:22:42;;;;;;;13.60;7.00;;;;;;;7.53;44.62;101180.73;116665;1200;136962;-59
2021/10/25 12:25:10;;;;;;;14.10;6.60;;;;;;;7.54;44.65;101176.98;116947;1198;22292;-60
2021/10/25 12:27:41;;;;;;;10.50;6.70;;;;;;;7.56;44.72;101175.51;116804;1198;136815;-59
2021/10/25 12:30:10;;;;;;;9.90;6.20;;;;;;;7.57;45.01;101172.46;116920;1199;24622;-59
2021/10/25 12:32:53;;;;;;;13.40;6.30;;;;;;;7.58;44.72;101171.27;116802;1199;136776;-59
2021/10/25 12:35:34;;;;;;;10.60;5.80;;;;;;;7.60;44.80;101161.42;116899;1198;22335;-60
2021/10/25 12:38:05;;;;;;;12.70;6.00;;;;;;;7.61;44.49;101160.86;116971;1199;22136;-59
2021/10/25 12:40:38;;;;;;;12.00;6.20;;;;;;;7.62;44.48;101158.02;114168;1199;137991;-67
2021/10/25 12:43:06;;;;;;;42.40;29.00;;;;;;;7.64;44.72;101153.91;116657;1200;23060;-66
2021/10/25 12:45:40;;;;;;;132.00;47.80;;;;;;;7.65;44.80;101152.86;116684;1200;136952;-66
2021/10/25 12:48:13;;;;;;;40.50;15.40;;;;;;;7.67;44.20;101150.73;116681;1200;22336;-67
2021/10/25 12:50:42;;;;;;;53.90;26.90;;;;;;;7.68;44.92;101151.34;116504;1198;137339;-67
2021/10/25 12:53:12;;;;;;;151.40;76.80;;;;;;;7.70;45.14;101152.18;116653;1200;22208;-67
2021/10/25 12:55:42;;;;;;;42.40;24.40;;;;;;;7.72;45.55;101155.42;116690;1200;22293;-67
2021/10/25 12:58:11;;;;;;;34.20;16.30;;;;;;;7.74;45.25;101151.71;116557;1200;137422;-67
2021/10/25 13:00:39;;;;;;;20.80;11.10;;;;;;;7.76;45.19;101146.64;116661;1200;22318;-67
2021/10/25 13:03:11;;;;;;;22.60;11.20;;;;;;;7.78;45.25;101151.41;116601;1200;138318;-66
2021/10/25 13:05:42;;;;;;;12.10;6.80;;;;;;;7.80;45.22;101151.35;116962;1199;22279;-67
2021/10/25 13:08:10;;;;;;;23.50;11.00;;;;;;;7.81;45.42;101150.86;116894;1199;22220;-67
2021/10/25 13:10:40;;;;;;;15.90;7.90;;;;;;;7.81;45.15;101150.86;116676;1199;137686;-67
2021/10/25 13:13:10;;;;;;;44.00;20.90;;;;;;;7.81;45.50;101144.35;116799;1200;22394;-67
2021/10/25 13:15:39;;;;;;;22.80;11.90;;;;;;;7.82;45.75;101143.35;116679;1200;137190;-67
2021/10/25 13:18:08;;;;;;;30.00;13.10;;;;;;;7.81;45.24;101143.64;116831;1200;23264;-67
2021/10/25 13:20:40;;;;;;;20.80;9.70;;;;;;;7.79;45.42;101143.95;116547;1200;138412;-66
2021/10/25 13:23:09;;;;;;;18.40;10.00;;;;;;;7.77;45.86;101138.91;116656;1200;22322;-67
2021/10/25 13:25:38;;;;;;;33.80;13.90;;;;;;;7.78;45.86;101141.43;116831;1199;22164;-67
2021/10/25 13:28:06;;;;;;;55.40;25.90;;;;;;;7.77;46.15;101135.65;116667;1199;137429;-67
2021/10/25 13:30:35;;;;;;;40.90;21.00;;;;;;;7.78;46.27;101136.98;116804;1199;22368;-66